Time;durP1;ratioP1;P1;durP2;ratioP2;P2;SDS_P1;SDS_P2;PMS_P1;PMS_P2;Temp;Humidity;BMP_temperature;BMP_pressure;BME280_temperature;BME280_humidity;BME280_pressure;Samples;Min_cycle;Max_cycle;Signal;HPM_P1;HPM_P2
2023/09/15 00:01:34;;;;;;;4.60;1.40;;;11.80;99.90;;;;;;5007032;28;20050;-64
2023/09/15 00:04:03;;;;;;;1.65;1.27;;;11.70;99.90;;;;;;5007435;28;20058;-64
2023/09/15 00:06:29;;;;;;;1.65;1.48;;;11.70;99.90;;;;;;5008888;28;20065;-64
2023/09/15 00:08:55;;;;;;;2.90;1.33;;;11.70;99.90;;;;;;4973114;28;20046;-64
2023/09/15 00:11:22;;;;;;;10.05;1.30;;;11.70;99.90;;;;;;5008012;28;20132;-64
2023/09/15 00:13:48;;;;;;;5.93;1.17;;;11.70;99.90;;;;;;5004793;28;20057;-64
2023/09/15 00:16:14;;;;;;;1.77;1.10;;;11.60;99.90;;;;;;5006974;28;20476;-64
2023/09/15 00:18:41;;;;;;;1.35;1.25;;;11.60;99.90;;;;;;5007618;28;20093;-64
2023/09/15 00:21:09;;;;;;;3.22;1.30;;;11.60;99.90;;;;;;4973506;28;20539;-64
2023/09/15 00:23:41;;;;;;;3.78;1.30;;;11.60;99.90;;;;;;4990421;28;20081;-64
2023/09/15 00:26:07;;;;;;;2.30;1.27;;;11.50;99.90;;;;;;5006625;28;20057;-64
2023/09/15 00:28:33;;;;;;;5.03;1.20;;;11.50;99.90;;;;;;4989587;28;20038;-64
2023/09/15 00:30:59;;;;;;;6.72;1.25;;;11.50;99.90;;;;;;4986318;28;20077;-64
2023/09/15 00:33:25;;;;;;;5.97;1.42;;;11.50;99.90;;;;;;5005822;28;20042;-64
2023/09/15 00:35:51;;;;;;;2.38;1.27;;;11.40;99.90;;;;;;5007518;28;20077;-64
2023/09/15 00:38:16;;;;;;;4.47;1.17;;;11.40;99.90;;;;;;5006796;28;20496;-64
2023/09/15 00:40:42;;;;;;;5.47;1.25;;;11.40;99.90;;;;;;4988148;28;20050;-64
2023/09/15 00:43:08;;;;;;;1.92;1.20;;;11.40;99.90;;;;;;5006419;28;20049;-64
2023/09/15 00:45:34;;;;;;;5.60;1.50;;;11.40;99.90;;;;;;5008366;28;20538;-64
2023/09/15 00:47:59;;;;;;;2.65;1.35;;;11.40;99.90;;;;;;5006431;28;20057;-64
2023/09/15 00:50:33;;;;;;;2.00;1.05;;;11.30;99.90;;;;;;5007466;28;20141;-64
2023/09/15 00:53:08;;;;;;;2.97;1.23;;;11.30;99.90;;;;;;5007283;28;20396;-64
2023/09/15 00:55:35;;;;;;;3.45;1.40;;;11.30;99.90;;;;;;5006673;28;20042;-64
2023/09/15 00:58:03;;;;;;;7.25;1.85;;;11.30;99.90;;;;;;4989742;28;20193;-64
2023/09/15 01:00:30;;;;;;;2.33;1.15;;;11.30;99.90;;;;;;5009408;28;20062;-64
2023/09/15 01:02:56;;;;;;;3.10;1.02;;;11.30;99.90;;;;;;5006547;28;20034;-63
2023/09/15 01:05:24;;;;;;;3.38;1.38;;;11.30;99.90;;;;;;5005837;28;20065;-64
2023/09/15 01:07:53;;;;;;;1.30;1.17;;;11.30;99.90;;;;;;4988874;28;20050;-64
2023/09/15 01:10:19;;;;;;;2.33;1.15;;;11.30;99.90;;;;;;4989947;28;20566;-63
2023/09/15 01:12:48;;;;;;;4.10;1.77;;;11.30;99.90;;;;;;5006425;28;20117;-63
2023/09/15 01:15:16;;;;;;;3.75;1.38;;;11.30;99.90;;;;;;4989907;28;20045;-64
2023/09/15 01:18:18;;;;;;;2.72;1.30;;;11.30;99.90;;;;;;5006559;28;20053;-64
2023/09/15 01:21:18;;;;;;;4.07;1.35;;;11.30;99.90;;;;;;4997592;28;20088;-64
2023/09/15 01:24:03;;;;;;;2.17;1.58;;;11.20;99.90;;;;;;4994841;28;20046;-63
2023/09/15 01:27:12;;;;;;;4.28;1.23;;;11.20;99.90;;;;;;5005978;28;20373;-63
2023/09/15 01:29:48;;;;;;;4.22;2.22;;;11.10;99.90;;;;;;5006677;28;20461;-64
2023/09/15 01:32:18;;;;;;;4.55;1.58;;;11.10;99.90;;;;;;4995929;28;20464;-64
2023/09/15 01:34:52;;;;;;;2.60;1.30;;;11.10;99.90;;;;;;5005866;28;20054;-63
2023/09/15 01:37:19;;;;;;;1.52;1.23;;;11.10;99.90;;;;;;4994534;28;20412;-63
2023/09/15 01:39:46;;;;;;;3.88;1.50;;;11.00;99.90;;;;;;5006254;28;20049;-63
2023/09/15 01:42:11;;;;;;;2.53;1.48;;;11.00;99.90;;;;;;5006404;28;20054;-64
2023/09/15 01:44:37;;;;;;;2.72;1.50;;;11.00;99.90;;;;;;4989053;28;20068;-63
2023/09/15 01:47:08;;;;;;;10.57;1.70;;;11.00;99.90;;;;;;5005876;28;20042;-63
2023/09/15 01:49:35;;;;;;;4.53;1.30;;;11.00;99.90;;;;;;5006573;28;20509;-63
2023/09/15 01:52:02;;;;;;;2.15;1.50;;;11.00;99.90;;;;;;4987581;28;20119;-64
2023/09/15 01:54:27;;;;;;;2.60;1.30;;;11.00;99.90;;;;;;4989495;28;20046;-63
2023/09/15 01:56:53;;;;;;;1.65;1.15;;;11.00;99.90;;;;;;5004904;28;20060;-64
2023/09/15 01:59:32;;;;;;;2.95;1.42;;;10.90;99.90;;;;;;5006651;28;20054;-63
2023/09/15 02:01:58;;;;;;;2.45;1.10;;;10.90;99.90;;;;;;5005169;28;20061;-63
2023/09/15 02:04:24;;;;;;;2.47;1.58;;;10.80;99.90;;;;;;5006126;28;20429;-64
2023/09/15 02:06:49;;;;;;;1.77;1.10;;;10.80;99.90;;;;;;5005652;28;20050;-64
2023/09/15 02:09:15;;;;;;;1.58;1.13;;;10.80;99.90;;;;;;5005016;28;20332;-63
2023/09/15 02:11:41;;;;;;;5.15;1.10;;;10.80;99.90;;;;;;4975747;28;20488;-63
2023/09/15 02:14:07;;;;;;;2.75;1.35;;;10.80;99.90;;;;;;5003582;28;20148;-63
2023/09/15 02:16:32;;;;;;;2.42;1.30;;;10.80;99.90;;;;;;5006824;28;20048;-63
2023/09/15 02:18:58;;;;;;;1.52;1.38;;;10.80;99.90;;;;;;5005529;28;20057;-63
2023/09/15 02:21:24;;;;;;;4.25;1.55;;;10.80;99.90;;;;;;5006000;28;20480;-63
2023/09/15 02:23:50;;;;;;;2.08;1.23;;;10.80;99.90;;;;;;5005777;28;20050;-63
2023/09/15 02:26:15;;;;;;;3.42;1.30;;;10.70;99.90;;;;;;5004830;28;20050;-63
2023/09/15 02:28:41;;;;;;;3.53;1.50;;;10.70;99.90;;;;;;5006149;28;20096;-63
2023/09/15 02:31:07;;;;;;;1.27;1.23;;;10.70;99.90;;;;;;5004818;28;20069;-63
2023/09/15 02:33:34;;;;;;;3.33;1.40;;;10.70;99.90;;;;;;4988975;28;20053;-63
2023/09/15 02:36:01;;;;;;;1.58;1.38;;;10.70;99.90;;;;;;5004678;28;20115;-63
2023/09/15 02:38:27;;;;;;;2.85;1.65;;;10.60;99.90;;;;;;5006262;28;20120;-63
2023/09/15 02:40:52;;;;;;;1.85;1.38;;;10.70;99.90;;;;;;5005292;28;20046;-63
2023/09/15 02:43:18;;;;;;;3.22;1.38;;;10.60;99.90;;;;;;5004750;28;20056;-63
2023/09/15 02:45:44;;;;;;;5.00;1.50;;;10.60;99.90;;;;;;4988006;28;20030;-63
2023/09/15 02:48:10;;;;;;;2.03;1.50;;;10.60;99.90;;;;;;5004971;28;20034;-63
2023/09/15 02:50:43;;;;;;;1.98;1.52;;;10.60;99.90;;;;;;5006302;28;20069;-63
2023/09/15 02:53:09;;;;;;;3.38;1.88;;;10.60;99.90;;;;;;5004389;28;20536;-63
2023/09/15 02:55:38;;;;;;;2.15;1.40;;;10.50;99.90;;;;;;5006177;28;20527;-63
2023/09/15 02:58:05;;;;;;;5.60;1.52;;;10.50;99.90;;;;;;5005348;28;20042;-63
2023/09/15 03:00:30;;;;;;;3.38;1.92;;;10.50;99.90;;;;;;5004781;28;20038;-64
2023/09/15 03:02:57;;;;;;;1.67;1.58;;;10.60;99.90;;;;;;5005845;28;20076;-63
2023/09/15 03:05:22;;;;;;;3.88;1.80;;;10.60;99.90;;;;;;5004989;28;20130;-63
2023/09/15 03:07:48;;;;;;;3.15;1.70;;;10.60;99.90;;;;;;5006813;28;20568;-63
2023/09/15 03:10:14;;;;;;;4.30;2.00;;;10.60;99.90;;;;;;5008243;28;20129;-63
2023/09/15 03:12:40;;;;;;;2.58;1.70;;;10.60;99.90;;;;;;5009571;28;20590;-63
2023/09/15 03:15:08;;;;;;;2.58;1.90;;;10.60;99.90;;;;;;5008206;28;20048;-64
2023/09/15 03:17:34;;;;;;;6.50;1.75;;;10.60;99.90;;;;;;5009369;28;20457;-63
2023/09/15 03:20:05;;;;;;;6.03;1.88;;;10.60;99.90;;;;;;4991433;28;20396;-63
2023/09/15 03:22:32;;;;;;;2.88;1.83;;;10.60;99.90;;;;;;5008559;28;20052;-64
2023/09/15 03:24:57;;;;;;;2.90;1.70;;;10.60;99.90;;;;;;5009772;28;20449;-63
2023/09/15 03:27:23;;;;;;;8.38;1.77;;;10.60;99.90;;;;;;4990280;28;20057;-63
2023/09/15 03:29:49;;;;;;;5.03;1.70;;;10.60;99.90;;;;;;5009981;28;20088;-64
2023/09/15 03:32:15;;;;;;;4.60;1.90;;;10.60;99.90;;;;;;5007710;28;20480;-64
2023/09/15 03:34:41;;;;;;;3.33;1.80;;;10.60;99.90;;;;;;5009282;28;20045;-64
2023/09/15 03:37:07;;;;;;;3.40;1.80;;;10.50;99.90;;;;;;4987585;28;20097;-64
2023/09/15 03:39:33;;;;;;;2.08;1.67;;;10.50;99.90;;;;;;5004179;28;20093;-64
2023/09/15 03:41:58;;;;;;;2.40;2.20;;;10.60;99.90;;;;;;5009403;28;20045;-64
2023/09/15 03:44:25;;;;;;;3.78;1.77;;;10.50;99.90;;;;;;5007573;28;20049;-63
2023/09/15 03:46:51;;;;;;;4.57;2.33;;;10.50;99.90;;;;;;5009182;28;20511;-63
2023/09/15 03:49:16;;;;;;;5.18;2.05;;;10.60;99.90;;;;;;4989384;28;20046;-64
2023/09/15 03:51:42;;;;;;;2.88;1.98;;;10.50;99.90;;;;;;5009319;28;20057;-63
2023/09/15 03:54:08;;;;;;;3.17;1.98;;;10.50;99.90;;;;;;4990422;28;20408;-64
2023/09/15 03:56:34;;;;;;;4.18;2.08;;;10.50;99.90;;;;;;4990262;28;20049;-64
2023/09/15 03:59:00;;;;;;;6.78;2.25;;;10.50;99.90;;;;;;5008450;28;20084;-63
2023/09/15 04:01:26;;;;;;;6.68;2.15;;;10.50;99.90;;;;;;4990314;28;20077;-64
2023/09/15 04:03:51;;;;;;;2.30;1.85;;;10.50;99.90;;;;;;5009236;28;20052;-64
2023/09/15 04:06:17;;;;;;;4.55;2.20;;;10.50;99.90;;;;;;4989479;28;20137;-64
2023/09/15 04:08:45;;;;;;;2.92;1.77;;;10.40;99.90;;;;;;5009125;28;20408;-64
2023/09/15 04:11:11;;;;;;;3.33;2.10;;;10.40;99.90;;;;;;5007345;28;20566;-64
2023/09/15 04:13:36;;;;;;;2.40;1.92;;;10.40;99.90;;;;;;4984222;28;20047;-63
2023/09/15 04:16:04;;;;;;;4.10;2.08;;;10.40;99.90;;;;;;5001688;28;20077;-63
2023/09/15 04:18:31;;;;;;;3.78;2.15;;;10.30;99.90;;;;;;5007522;28;20045;-64
2023/09/15 04:20:58;;;;;;;6.00;2.25;;;10.40;99.90;;;;;;5007288;28;20501;-64
2023/09/15 04:23:23;;;;;;;2.40;2.20;;;10.30;99.90;;;;;;5006721;28;20097;-64
2023/09/15 04:25:49;;;;;;;2.60;2.10;;;10.30;99.90;;;;;;5008002;28;20540;-63
2023/09/15 04:28:15;;;;;;;10.43;2.30;;;10.30;99.90;;;;;;4969899;28;20404;-63
2023/09/15 04:30:43;;;;;;;3.85;2.00;;;10.20;99.90;;;;;;5006353;28;20053;-63
2023/09/15 04:33:09;;;;;;;4.75;2.35;;;10.30;99.90;;;;;;5007660;28;20056;-63
2023/09/15 04:35:36;;;;;;;2.30;2.00;;;10.20;99.90;;;;;;5007208;28;20050;-64
2023/09/15 04:38:02;;;;;;;3.65;1.85;;;10.20;99.90;;;;;;5007688;28;20060;-63
2023/09/15 04:40:28;;;;;;;5.45;2.25;;;10.20;99.90;;;;;;5006817;28;20124;-63
2023/09/15 04:42:54;;;;;;;6.25;2.25;;;10.20;99.90;;;;;;4990352;28;20179;-63
2023/09/15 04:45:20;;;;;;;2.40;2.03;;;10.20;99.90;;;;;;5006079;28;20045;-63
2023/09/15 04:47:46;;;;;;;4.00;2.35;;;10.20;99.90;;;;;;4971398;28;20042;-64
2023/09/15 04:50:11;;;;;;;4.30;2.60;;;10.20;99.90;;;;;;4984741;28;20037;-63
2023/09/15 04:52:37;;;;;;;4.35;2.30;;;10.20;99.90;;;;;;5007629;28;20041;-63
2023/09/15 04:55:03;;;;;;;2.53;2.00;;;10.20;99.90;;;;;;5007349;28;20056;-64
2023/09/15 04:57:29;;;;;;;2.88;1.55;;;10.20;99.90;;;;;;5006372;28;20152;-64
2023/09/15 04:59:54;;;;;;;4.20;1.80;;;10.10;99.90;;;;;;5007244;28;20050;-63
2023/09/15 05:02:25;;;;;;;2.28;1.77;;;10.00;99.90;;;;;;5005892;28;20052;-64
2023/09/15 05:04:52;;;;;;;4.70;2.05;;;9.90;99.90;;;;;;4988642;28;20054;-64
2023/09/15 05:07:18;;;;;;;3.70;1.88;;;9.80;99.90;;;;;;4988231;28;20053;-63
2023/09/15 05:09:45;;;;;;;2.92;2.20;;;9.80;99.90;;;;;;4986291;28;20042;-63
2023/09/15 05:12:11;;;;;;;2.65;2.15;;;9.70;99.90;;;;;;4997296;28;20050;-63
2023/09/15 05:14:37;;;;;;;2.25;2.10;;;9.70;99.90;;;;;;5006744;28;20052;-63
2023/09/15 05:17:03;;;;;;;3.63;2.35;;;9.70;99.90;;;;;;5007493;28;20042;-63
2023/09/15 05:19:29;;;;;;;2.17;1.90;;;9.70;99.90;;;;;;4981123;28;20061;-64
2023/09/15 05:21:55;;;;;;;3.28;2.28;;;9.60;99.90;;;;;;4989784;28;20045;-63
2023/09/15 05:24:20;;;;;;;5.03;2.30;;;9.60;99.90;;;;;;5006238;28;20481;-63
2023/09/15 05:26:46;;;;;;;3.08;2.00;;;9.50;99.90;;;;;;5006872;28;20117;-63
2023/09/15 05:29:12;;;;;;;3.30;1.80;;;9.50;99.90;;;;;;5006789;28;20041;-63
2023/09/15 05:31:37;;;;;;;2.30;2.10;;;9.50;99.90;;;;;;4971672;28;20045;-63
2023/09/15 05:34:03;;;;;;;3.55;1.90;;;9.50;99.90;;;;;;5006484;28;20085;-63
2023/09/15 05:36:29;;;;;;;3.88;2.10;;;9.50;99.90;;;;;;5005581;28;20065;-63
2023/09/15 05:38:55;;;;;;;2.28;2.03;;;9.60;99.90;;;;;;4989622;28;20535;-63
2023/09/15 05:41:21;;;;;;;2.75;2.10;;;9.60;99.90;;;;;;4988047;28;20073;-63
2023/09/15 05:43:46;;;;;;;2.05;1.85;;;9.60;99.90;;;;;;4988973;28;20046;-63
2023/09/15 05:46:12;;;;;;;4.85;2.30;;;9.60;99.90;;;;;;4987719;28;20128;-64
2023/09/15 05:48:38;;;;;;;4.70;2.50;;;9.60;99.90;;;;;;4988716;28;20049;-63
2023/09/15 05:51:06;;;;;;;4.75;2.67;;;9.60;99.90;;;;;;5006202;28;20046;-64
2023/09/15 05:53:33;;;;;;;2.47;2.28;;;9.70;99.90;;;;;;4986721;28;20395;-63
2023/09/15 05:55:58;;;;;;;2.80;2.30;;;9.60;99.90;;;;;;5009134;28;20045;-64
2023/09/15 05:58:24;;;;;;;2.70;2.30;;;9.60;99.90;;;;;;4987586;28;20087;-63
2023/09/15 06:00:54;;;;;;;4.20;2.22;;;9.70;99.90;;;;;;4988546;28;20050;-63
2023/09/15 06:03:20;;;;;;;1.90;1.80;;;9.70;99.90;;;;;;4987218;28;20072;-63
2023/09/15 06:05:45;;;;;;;3.08;2.25;;;9.80;99.90;;;;;;4988220;28;20462;-63
2023/09/15 06:08:11;;;;;;;2.72;2.17;;;9.80;99.90;;;;;;4987935;28;20081;-63
2023/09/15 06:10:39;;;;;;;3.10;2.35;;;9.90;99.90;;;;;;4988217;28;20099;-63
2023/09/15 06:13:08;;;;;;;3.30;2.47;;;10.00;99.90;;;;;;4988625;28;20143;-63
2023/09/15 06:15:34;;;;;;;3.00;2.77;;;10.10;99.90;;;;;;5005501;28;20046;-64
2023/09/15 06:18:01;;;;;;;3.88;3.15;;;10.30;99.90;;;;;;5006181;28;20057;-63
2023/09/15 06:20:30;;;;;;;2.95;2.60;;;10.40;99.90;;;;;;5005294;28;20046;-63
2023/09/15 06:22:56;;;;;;;3.65;2.53;;;10.50;99.90;;;;;;5005516;28;20519;-64
2023/09/15 06:25:22;;;;;;;7.10;3.05;;;10.60;99.90;;;;;;5005396;28;20405;-64
2023/09/15 06:27:49;;;;;;;5.88;2.63;;;10.70;99.90;;;;;;5004760;28;20044;-64
2023/09/15 06:30:15;;;;;;;4.00;2.63;;;10.90;99.90;;;;;;5004998;28;20056;-64
2023/09/15 06:32:41;;;;;;;7.28;2.80;;;11.00;99.90;;;;;;5006448;28;20078;-64
2023/09/15 06:35:10;;;;;;;4.00;2.47;;;11.20;99.90;;;;;;5005360;28;20416;-64
2023/09/15 06:37:36;;;;;;;3.67;2.63;;;11.40;99.90;;;;;;5002637;28;20050;-64
2023/09/15 06:40:03;;;;;;;4.10;3.00;;;11.60;99.90;;;;;;4998516;28;20126;-64
2023/09/15 06:42:29;;;;;;;5.13;2.88;;;11.80;99.90;;;;;;5004639;28;20378;-63
2023/09/15 06:44:55;;;;;;;3.03;2.80;;;12.00;99.90;;;;;;5009762;28;20053;-63
2023/09/15 06:47:21;;;;;;;4.95;2.75;;;12.20;99.90;;;;;;4993789;28;20057;-63
2023/09/15 06:49:46;;;;;;;4.75;2.88;;;12.50;99.90;;;;;;5017804;28;20046;-63
2023/09/15 06:52:12;;;;;;;4.50;2.80;;;12.80;99.90;;;;;;5015131;28;20399;-63
2023/09/15 06:54:38;;;;;;;3.88;2.78;;;13.00;99.90;;;;;;5008691;28;20034;-63
2023/09/15 06:57:04;;;;;;;5.22;3.08;;;13.20;99.90;;;;;;5009938;28;20041;-63
2023/09/15 06:59:35;;;;;;;4.78;3.03;;;13.30;99.90;;;;;;4991825;28;20044;-64
2023/09/15 07:02:02;;;;;;;4.47;2.63;;;13.50;99.90;;;;;;5009186;28;20381;-64
2023/09/15 07:04:29;;;;;;;5.70;3.10;;;13.70;99.90;;;;;;4990715;28;20089;-63
2023/09/15 07:06:55;;;;;;;4.80;2.53;;;13.80;99.90;;;;;;5007820;28;20134;-64
2023/09/15 07:09:22;;;;;;;3.33;2.83;;;14.00;99.90;;;;;;4990885;28;20120;-64
2023/09/15 07:11:48;;;;;;;6.43;3.15;;;14.10;99.90;;;;;;5014249;28;20063;-64
2023/09/15 07:14:13;;;;;;;3.88;3.13;;;14.20;99.90;;;;;;5016596;28;20076;-64
2023/09/15 07:16:41;;;;;;;6.15;2.35;;;14.40;99.90;;;;;;4990052;28;20124;-64
2023/09/15 07:19:06;;;;;;;4.63;2.28;;;14.50;99.90;;;;;;5010064;28;20049;-63
2023/09/15 07:21:32;;;;;;;3.92;2.60;;;14.70;99.90;;;;;;5008430;28;20045;-63
2023/09/15 07:23:59;;;;;;;4.43;2.90;;;14.80;99.90;;;;;;4990065;28;20042;-64
2023/09/15 07:26:26;;;;;;;3.15;2.85;;;15.00;99.90;;;;;;4971480;28;20096;-64
2023/09/15 07:28:53;;;;;;;4.80;2.92;;;15.00;99.90;;;;;;5006560;28;20042;-64
2023/09/15 07:31:20;;;;;;;5.22;2.65;;;15.20;99.90;;;;;;5007404;28;20068;-64
2023/09/15 07:33:46;;;;;;;5.80;2.70;;;15.30;99.90;;;;;;4990477;28;20111;-64
2023/09/15 07:36:12;;;;;;;3.72;3.10;;;15.40;99.10;;;;;;5008285;28;20066;-64
2023/09/15 07:38:38;;;;;;;4.63;2.78;;;15.50;99.40;;;;;;5007455;28;20038;-64
2023/09/15 07:41:04;;;;;;;4.45;2.85;;;15.60;99.90;;;;;;4974010;28;20129;-64
2023/09/15 07:43:30;;;;;;;4.05;2.80;;;15.70;96.50;;;;;;4981502;28;20133;-64
2023/09/15 07:45:56;;;;;;;5.20;2.92;;;15.80;98.70;;;;;;4993446;28;20365;-65
2023/09/15 07:48:22;;;;;;;7.57;2.83;;;15.90;94.80;;;;;;5001384;28;20161;-64
2023/09/15 07:50:48;;;;;;;5.80;2.47;;;16.00;94.30;;;;;;5005499;28;20526;-64
2023/09/15 07:53:14;;;;;;;5.53;3.03;;;16.20;93.80;;;;;;5007480;28;20141;-64
2023/09/15 07:55:40;;;;;;;7.50;3.60;;;16.20;93.90;;;;;;5004949;28;20046;-64
2023/09/15 07:58:06;;;;;;;4.32;2.50;;;16.30;93.60;;;;;;4973855;28;20053;-64
2023/09/15 08:00:32;;;;;;;4.07;2.70;;;16.40;92.80;;;;;;5006595;28;20037;-64
2023/09/15 08:02:57;;;;;;;3.25;2.75;;;16.40;91.30;;;;;;5007746;28;20104;-64
2023/09/15 08:05:23;;;;;;;3.85;2.90;;;16.50;91.80;;;;;;5006957;28;20045;-64
2023/09/15 08:07:49;;;;;;;7.05;2.88;;;16.70;92.00;;;;;;4972354;28;20054;-64
2023/09/15 08:10:18;;;;;;;7.53;3.13;;;16.80;92.00;;;;;;4989652;28;20500;-64
2023/09/15 08:12:43;;;;;;;4.95;2.55;;;16.90;92.50;;;;;;5006693;28;20045;-64
2023/09/15 08:15:10;;;;;;;8.32;2.88;;;16.90;91.70;;;;;;5006953;28;20095;-64
2023/09/15 08:17:36;;;;;;;4.18;2.92;;;17.00;87.80;;;;;;4987490;28;20121;-64
2023/09/15 08:20:03;;;;;;;4.50;2.75;;;17.10;85.00;;;;;;4978084;28;20050;-64
2023/09/15 08:22:30;;;;;;;4.50;3.15;;;17.20;81.30;;;;;;4989445;28;20042;-64
2023/09/15 08:24:58;;;;;;;7.15;2.60;;;17.20;75.40;;;;;;5005936;28;20034;-64
2023/09/15 08:27:26;;;;;;;5.22;2.65;;;17.20;82.90;;;;;;4969963;28;20087;-64
2023/09/15 08:29:51;;;;;;;4.30;2.47;;;17.40;83.70;;;;;;5005428;28;20052;-64
2023/09/15 08:32:17;;;;;;;4.05;2.55;;;17.40;86.10;;;;;;5006792;28;20041;-64
2023/09/15 08:34:43;;;;;;;5.47;2.70;;;17.50;85.70;;;;;;4988068;28;20597;-64
2023/09/15 08:37:08;;;;;;;4.22;2.80;;;17.50;85.60;;;;;;5006897;28;20054;-64
2023/09/15 08:39:34;;;;;;;2.63;2.22;;;17.60;87.60;;;;;;5006977;28;20384;-64
2023/09/15 08:42:07;;;;;;;5.60;2.50;;;17.70;83.80;;;;;;4989021;28;20503;-64
2023/09/15 08:44:33;;;;;;;5.82;2.83;;;17.70;81.80;;;;;;5001155;28;20053;-64
2023/09/15 08:47:05;;;;;;;4.47;2.67;;;17.80;76.50;;;;;;4967419;28;20046;-64
2023/09/15 08:49:31;;;;;;;4.10;2.25;;;17.90;79.80;;;;;;5007144;28;20046;-64
2023/09/15 08:51:58;;;;;;;6.30;2.58;;;17.90;80.70;;;;;;5006043;28;20157;-64
2023/09/15 08:54:24;;;;;;;4.82;2.22;;;18.00;84.40;;;;;;5007668;28;20042;-64
2023/09/15 08:56:50;;;;;;;6.38;2.88;;;18.10;89.30;;;;;;5006311;28;20042;-64
2023/09/15 08:59:17;;;;;;;8.57;2.10;;;18.20;87.00;;;;;;4988701;28;20030;-65
2023/09/15 09:01:43;;;;;;;4.70;2.22;;;18.30;78.00;;;;;;5006608;28;20084;-64
2023/09/15 09:04:10;;;;;;;3.08;2.63;;;18.40;79.70;;;;;;5005952;28;20045;-64
2023/09/15 09:06:37;;;;;;;2.72;1.98;;;18.40;76.00;;;;;;4973486;28;20449;-65
2023/09/15 09:09:04;;;;;;;5.18;2.40;;;18.50;81.70;;;;;;5005356;28;20073;-64
2023/09/15 09:11:30;;;;;;;7.13;2.40;;;18.50;71.20;;;;;;4990081;28;20046;-64
2023/09/15 09:13:56;;;;;;;3.58;2.20;;;18.60;73.00;;;;;;4987965;28;20038;-64
2023/09/15 09:16:22;;;;;;;3.38;2.00;;;18.60;72.80;;;;;;5007401;28;20128;-64
2023/09/15 09:19:00;;;;;;;4.20;2.50;;;18.60;72.10;;;;;;5006197;28;20044;-64
2023/09/15 09:21:27;;;;;;;4.82;2.20;;;18.70;75.40;;;;;;5006156;28;20494;-64
2023/09/15 09:23:53;;;;;;;3.08;1.98;;;18.90;72.50;;;;;;5003512;28;20400;-64
2023/09/15 09:26:19;;;;;;;7.25;2.28;;;19.00;73.00;;;;;;5002487;28;20388;-64
2023/09/15 09:28:45;;;;;;;5.78;2.22;;;19.00;68.70;;;;;;4969275;28;20055;-67
2023/09/15 09:31:11;;;;;;;6.20;2.30;;;19.10;67.90;;;;;;5004578;28;20480;-64
2023/09/15 09:33:37;;;;;;;4.00;1.50;;;19.20;63.80;;;;;;4998729;28;20042;-64
2023/09/15 09:36:14;;;;;;;9.65;2.30;;;19.30;49.00;;;;;;4984652;28;20066;-64
2023/09/15 09:38:49;;;;;;;2.28;1.80;;;19.40;66.80;;;;;;4998468;28;20401;-64
2023/09/15 09:41:28;;;;;;;6.25;2.00;;;19.50;48.90;;;;;;4968918;28;20122;-64
2023/09/15 09:43:55;;;;;;;3.58;1.80;;;19.50;46.90;;;;;;4998365;28;20038;-64
2023/09/15 09:46:21;;;;;;;6.88;2.10;;;19.50;44.60;;;;;;4998501;28;20053;-64
2023/09/15 09:48:49;;;;;;;2.67;1.70;;;19.60;30.90;;;;;;5005440;28;20112;-64
2023/09/15 09:51:16;;;;;;;3.75;2.05;;;19.60;22.80;;;;;;5006023;28;20489;-64
2023/09/15 09:53:42;;;;;;;2.55;1.50;;;19.50;19.80;;;;;;4985858;28;20097;-64
2023/09/15 09:56:08;;;;;;;2.35;1.60;;;19.60;25.30;;;;;;5004952;28;20125;-64
2023/09/15 09:58:38;;;;;;;4.55;1.70;;;19.60;10.10;;;;;;5006072;28;20041;-64
2023/09/15 10:01:06;;;;;;;6.32;1.65;;;19.70;4.80;;;;;;5008642;28;20492;-64
2023/09/15 10:03:32;;;;;;;3.70;1.60;;;19.70;8.10;;;;;;4972418;28;20128;-64
2023/09/15 10:05:59;;;;;;;3.78;1.65;;;19.70;13.50;;;;;;5004015;28;20045;-64
2023/09/15 10:08:26;;;;;;;4.63;1.52;;;19.70;1.00;;;;;;4968043;28;20396;-64
2023/09/15 10:10:53;;;;;;;2.00;1.40;;;19.80;14.20;;;;;;4988061;28;20052;-64
2023/09/15 10:13:19;;;;;;;2.15;1.08;;;19.90;1.00;;;;;;5004686;28;20050;-64
2023/09/15 10:15:48;;;;;;;1.52;1.25;;;19.90;1.00;;;;;;5006626;28;20042;-65
2023/09/15 10:18:17;;;;;;;2.25;1.58;;;19.90;1.00;;;;;;5003630;28;20052;-65
2023/09/15 10:20:45;;;;;;;4.15;1.70;;;20.00;1.00;;;;;;5006371;28;20597;-65
2023/09/15 10:23:12;;;;;;;4.20;1.55;;;19.90;1.00;;;;;;5003803;28;20054;-65
2023/09/15 10:25:42;;;;;;;5.45;1.50;;;19.90;1.00;;;;;;5006276;28;20046;-64
2023/09/15 10:28:11;;;;;;;7.20;1.80;;;19.90;1.00;;;;;;5005013;28;20046;-64
2023/09/15 10:30:42;;;;;;;3.05;1.60;;;19.90;1.00;;;;;;4994531;28;20061;-64
2023/09/15 10:33:12;;;;;;;5.72;1.20;;;20.00;1.00;;;;;;4983283;28;20480;-64
2023/09/15 10:35:45;;;;;;;2.88;1.60;;;20.00;1.00;;;;;;4981103;28;20134;-64
2023/09/15 10:38:10;;;;;;;3.30;1.67;;;20.20;1.00;;;;;;4987213;28;20056;-64
2023/09/15 10:40:49;;;;;;;4.97;1.75;;;20.30;1.00;;;;;;5003693;28;20046;-64
2023/09/15 10:43:19;;;;;;;5.55;1.67;;;20.40;1.00;;;;;;5004545;28;20139;-64
2023/09/15 10:45:57;;;;;;;5.18;1.95;;;20.40;1.00;;;;;;5004466;28;20070;-65
2023/09/15 10:48:44;;;;;;;8.70;1.97;;;20.50;1.00;;;;;;4986656;28;20204;-64
2023/09/15 10:51:10;;;;;;;4.38;1.90;;;20.50;1.00;;;;;;5005098;28;20372;-65
2023/09/15 10:53:50;;;;;;;4.18;1.70;;;20.50;1.00;;;;;;5004456;28;20057;-64
2023/09/15 10:56:18;;;;;;;3.45;2.30;;;20.60;1.00;;;;;;4995784;28;20056;-64
2023/09/15 10:58:48;;;;;;;1.77;1.35;;;20.60;1.00;;;;;;5009637;28;20548;-64
2023/09/15 11:01:15;;;;;;;3.08;1.88;;;20.60;1.00;;;;;;4985469;28;20551;-64
2023/09/15 11:03:41;;;;;;;4.35;1.98;;;20.70;1.00;;;;;;5002523;28;20104;-64
2023/09/15 11:06:12;;;;;;;4.03;1.63;;;20.80;1.00;;;;;;4986453;28;20042;-64
2023/09/15 11:08:39;;;;;;;3.03;2.10;;;20.80;1.00;;;;;;5005451;28;20061;-64
2023/09/15 11:11:08;;;;;;;3.55;2.05;;;20.80;1.00;;;;;;4986399;28;20140;-64
2023/09/15 11:13:35;;;;;;;5.50;2.13;;;20.80;1.00;;;;;;4987054;28;20057;-64
2023/09/15 11:16:01;;;;;;;2.60;1.92;;;20.80;1.00;;;;;;5005429;28;20536;-64
2023/09/15 11:18:27;;;;;;;2.78;1.98;;;20.70;1.00;;;;;;5003628;28;20050;-64
2023/09/15 11:20:55;;;;;;;4.85;2.17;;;20.70;1.00;;;;;;4985817;28;20489;-64
2023/09/15 11:23:24;;;;;;;4.90;1.73;;;20.70;1.00;;;;;;5003702;28;20510;-64
2023/09/15 11:26:01;;;;;;;2.22;1.45;;;20.80;1.00;;;;;;4971904;28;20571;-64
2023/09/15 11:28:28;;;;;;;4.78;1.60;;;20.80;1.00;;;;;;4997787;28;20542;-64
2023/09/15 11:30:54;;;;;;;5.28;1.80;;;20.90;1.00;;;;;;5005923;28;20052;-64
2023/09/15 11:33:22;;;;;;;1.45;1.35;;;20.90;1.00;;;;;;5007095;28;20054;-64
2023/09/15 11:35:48;;;;;;;2.63;1.67;;;20.90;1.00;;;;;;4987914;28;20054;-64
2023/09/15 11:38:14;;;;;;;3.80;1.20;;;20.90;1.00;;;;;;4986209;28;20133;-64
2023/09/15 11:40:49;;;;;;;4.93;1.65;;;21.00;1.00;;;;;;5004465;28;20125;-64
2023/09/15 11:43:15;;;;;;;2.75;1.42;;;21.10;1.00;;;;;;5007612;28;20045;-65
2023/09/15 11:45:42;;;;;;;2.67;1.55;;;21.20;1.00;;;;;;4978103;28;20153;-65
2023/09/15 11:48:11;;;;;;;6.65;1.80;;;21.10;1.00;;;;;;5007954;28;20046;-64
2023/09/15 11:50:37;;;;;;;3.88;1.83;;;21.20;1.00;;;;;;5008203;28;20152;-65
2023/09/15 11:53:03;;;;;;;3.17;1.73;;;21.20;1.00;;;;;;4989771;28;20050;-64
2023/09/15 11:55:29;;;;;;;5.63;1.63;;;21.20;1.00;;;;;;4989713;28;20042;-65
2023/09/15 11:57:56;;;;;;;2.53;1.50;;;21.30;1.00;;;;;;5007026;28;20057;-64
2023/09/15 12:00:26;;;;;;;4.10;1.90;;;21.30;1.00;;;;;;4990028;28;20050;-64
2023/09/15 12:02:53;;;;;;;2.92;1.25;;;21.30;1.00;;;;;;5005536;28;20050;-65
2023/09/15 12:05:21;;;;;;;2.95;1.58;;;21.40;1.00;;;;;;5002070;28;20180;-65
2023/09/15 12:07:47;;;;;;;3.65;1.48;;;21.30;1.00;;;;;;5007328;28;20057;-65
2023/09/15 12:10:25;;;;;;;3.92;1.58;;;21.40;1.00;;;;;;5007143;28;20056;-64
2023/09/15 12:12:58;;;;;;;2.40;1.30;;;21.40;1.00;;;;;;5008456;28;20054;-64
2023/09/15 12:15:25;;;;;;;8.27;1.75;;;21.50;1.00;;;;;;5004829;28;20567;-67
2023/09/15 12:17:52;;;;;;;6.20;1.40;;;21.50;1.00;;;;;;5007456;28;20050;-63
2023/09/15 12:20:23;;;;;;;2.65;1.55;;;21.50;1.00;;;;;;4988190;28;20084;-63
2023/09/15 12:22:49;;;;;;;3.28;1.42;;;21.50;1.00;;;;;;4988929;28;20042;-63
2023/09/15 12:25:16;;;;;;;3.60;1.50;;;21.50;1.00;;;;;;5007764;28;20095;-64
2023/09/15 12:27:42;;;;;;;5.88;1.55;;;21.60;1.00;;;;;;4986098;28;20093;-64
2023/09/15 12:30:11;;;;;;;5.55;1.58;;;21.70;1.00;;;;;;5007796;28;20073;-64
2023/09/15 12:32:38;;;;;;;4.32;1.77;;;21.80;1.00;;;;;;5003969;28;20110;-64
2023/09/15 12:35:12;;;;;;;3.35;1.55;;;21.80;1.00;;;;;;5006525;28;20462;-64
2023/09/15 12:37:46;;;;;;;2.42;1.70;;;21.80;1.00;;;;;;5009420;28;20053;-64
2023/09/15 12:40:13;;;;;;;2.10;1.50;;;21.80;1.00;;;;;;4984469;28;20106;-64
2023/09/15 12:42:39;;;;;;;2.42;1.63;;;21.80;1.00;;;;;;4980430;28;20050;-64
2023/09/15 12:45:06;;;;;;;3.00;1.55;;;21.80;1.00;;;;;;5005112;28;20126;-64
2023/09/15 12:47:33;;;;;;;4.30;1.63;;;21.80;1.00;;;;;;5004910;28;20516;-64
2023/09/15 12:50:00;;;;;;;2.53;1.60;;;21.90;1.00;;;;;;4988943;28;20045;-64
2023/09/15 12:52:26;;;;;;;3.65;1.70;;;21.90;1.00;;;;;;5006846;28;20593;-65